Time;durP1;ratioP1;P1;durP2;ratioP2;P2;SDS_P1;SDS_P2;PMS_P1;PMS_P2;Temp;Humidity;BMP_temperature;BMP_pressure;BME280_temperature;BME280_humidity;BME280_pressure;Samples;Min_cycle;Max_cycle;Signal;HPM_P1;HPM_P2
2023/03/23 00:01:55;;;;;;;0.83;0.83;;;;;;;;;;7397389;19;20164;-88
2023/03/23 00:04:22;;;;;;;0.47;0.47;;;;;;;;;;7399679;19;20613;-86
2023/03/23 00:06:49;;;;;;;0.40;0.40;;;;;;;;;;7401005;19;20148;-88
2023/03/23 00:09:17;;;;;;;0.30;0.30;;;;;;;;;;7411892;19;20179;-92
2023/03/23 00:11:43;;;;;;;0.53;0.53;;;;;;;;;;7422161;19;20156;-92
2023/03/23 00:14:13;;;;;;;0.40;0.40;;;;;;;;;;7430463;19;20164;-92
2023/03/23 00:16:44;;;;;;;0.90;0.90;;;;;;;;;;7429619;19;20153;-92
2023/03/23 00:19:14;;;;;;;1.57;1.47;;;;;;;;;;7422545;19;20149;-85
2023/03/23 00:21:42;;;;;;;0.33;0.33;;;;;;;;;;7409950;19;20137;-85
2023/03/23 00:24:18;;;;;;;0.50;0.50;;;;;;;;;;7407967;19;20149;-89
2023/03/23 00:26:46;;;;;;;0.40;0.40;;;;;;;;;;7407783;19;20140;-88
2023/03/23 00:29:16;;;;;;;0.40;0.40;;;;;;;;;;7406185;19;20659;-85
2023/03/23 00:31:46;;;;;;;0.30;0.30;;;;;;;;;;7409875;19;20149;-89
2023/03/23 00:34:19;;;;;;;0.57;0.57;;;;;;;;;;7406614;19;20570;-86
2023/03/23 00:36:50;;;;;;;4.77;0.53;;;;;;;;;;7406762;19;20164;-88
2023/03/23 00:39:17;;;;;;;0.57;0.57;;;;;;;;;;7404995;19;20153;-87
2023/03/23 00:41:45;;;;;;;0.50;0.50;;;;;;;;;;7404948;19;20617;-86
2023/03/23 00:44:19;;;;;;;5.70;0.67;;;;;;;;;;7407321;19;20137;-86
2023/03/23 00:46:49;;;;;;;0.73;0.73;;;;;;;;;;7407612;19;20160;-85
2023/03/23 00:49:18;;;;;;;0.50;0.50;;;;;;;;;;7405667;19;20157;-86
2023/03/23 00:51:45;;;;;;;0.40;0.40;;;;;;;;;;7405479;19;20145;-86
2023/03/23 00:54:12;;;;;;;1.60;0.60;;;;;;;;;;7427904;19;20160;-92
2023/03/23 00:56:39;;;;;;;0.50;0.50;;;;;;;;;;7430188;19;20157;-92
2023/03/23 00:59:06;;;;;;;3.00;0.80;;;;;;;;;;7429960;19;20165;-90
2023/03/23 01:01:34;;;;;;;0.70;0.67;;;;;;;;;;7426714;19;20129;-88
2023/03/23 01:04:03;;;;;;;0.73;0.57;;;;;;;;;;7423098;19;20145;-88
2023/03/23 01:06:31;;;;;;;0.50;0.50;;;;;;;;;;7405440;19;20137;-85
2023/03/23 01:08:58;;;;;;;0.50;0.50;;;;;;;;;;7406274;19;20551;-86
2023/03/23 01:11:25;;;;;;;0.40;0.40;;;;;;;;;;7404913;19;20675;-85
2023/03/23 01:13:52;;;;;;;0.60;0.50;;;;;;;;;;7405475;19;20169;-85
2023/03/23 01:16:19;;;;;;;0.37;0.37;;;;;;;;;;7408201;19;20128;-86
2023/03/23 01:18:45;;;;;;;0.30;0.30;;;;;;;;;;7409077;19;20152;-85
2023/03/23 01:21:15;;;;;;;0.40;0.40;;;;;;;;;;7408102;19;20125;-85
2023/03/23 01:23:42;;;;;;;0.47;0.47;;;;;;;;;;7409939;19;20132;-86
2023/03/23 01:26:11;;;;;;;0.43;0.43;;;;;;;;;;7409760;19;20152;-87
2023/03/23 01:28:40;;;;;;;0.37;0.37;;;;;;;;;;7410266;19;20168;-85
2023/03/23 01:31:09;;;;;;;0.50;0.50;;;;;;;;;;7408644;19;20124;-85
2023/03/23 01:33:41;;;;;;;0.77;0.77;;;;;;;;;;7410088;19;20141;-87
2023/03/23 01:36:12;;;;;;;0.40;0.40;;;;;;;;;;7425002;19;20129;-92
2023/03/23 01:38:39;;;;;;;0.30;0.30;;;;;;;;;;7429434;19;20149;-92
2023/03/23 01:41:05;;;;;;;0.40;0.40;;;;;;;;;;7427100;19;20125;-92
2023/03/23 01:43:32;;;;;;;0.60;0.53;;;;;;;;;;7427122;19;20176;-86
2023/03/23 01:45:59;;;;;;;0.50;0.50;;;;;;;;;;7405556;19;20613;-86
2023/03/23 01:48:37;;;;;;;0.40;0.40;;;;;;;;;;7400971;19;20173;-88
2023/03/23 01:51:12;;;;;;;0.60;0.60;;;;;;;;;;7400549;19;20144;-86
2023/03/23 01:53:43;;;;;;;0.50;0.50;;;;;;;;;;7402975;19;20147;-88
2023/03/23 01:56:11;;;;;;;0.30;0.30;;;;;;;;;;7402671;19;20149;-88
2023/03/23 01:58:38;;;;;;;0.30;0.30;;;;;;;;;;7398509;19;20174;-89
2023/03/23 02:01:11;;;;;;;0.30;0.30;;;;;;;;;;7401357;19;20147;-88
2023/03/23 02:03:40;;;;;;;0.30;0.30;;;;;;;;;;7404352;19;20489;-87
2023/03/23 02:06:07;;;;;;;4.23;0.80;;;;;;;;;;7405423;19;20262;-88
2023/03/23 02:08:34;;;;;;;0.30;0.30;;;;;;;;;;7402194;19;20176;-86
2023/03/23 02:11:01;;;;;;;0.50;0.50;;;;;;;;;;7403508;19;20133;-86
2023/03/23 02:13:28;;;;;;;0.40;0.40;;;;;;;;;;7405221;19;20133;-86
2023/03/23 02:16:07;;;;;;;0.30;0.30;;;;;;;;;;7402378;19;20141;-88
2023/03/23 02:18:52;;;;;;;0.40;0.40;;;;;;;;;;7402305;19;20628;-85
2023/03/23 02:21:45;;;;;;;0.40;0.40;;;;;;;;;;7403426;19;20157;-85
2023/03/23 02:24:29;;;;;;;0.30;0.30;;;;;;;;;;7405813;19;20160;-86
2023/03/23 02:27:01;;;;;;;0.30;0.30;;;;;;;;;;7405604;19;20176;-88
2023/03/23 02:29:46;;;;;;;0.30;0.30;;;;;;;;;;7403470;19;20187;-88
2023/03/23 02:32:23;;;;;;;0.30;0.30;;;;;;;;;;7403158;19;20485;-85
2023/03/23 02:35:19;;;;;;;0.30;0.30;;;;;;;;;;7400721;19;20133;-89
2023/03/23 02:37:52;;;;;;;0.33;0.33;;;;;;;;;;7403074;19;20159;-89
2023/03/23 02:40:28;;;;;;;0.50;0.50;;;;;;;;;;7402057;19;20136;-85
2023/03/23 02:42:56;;;;;;;0.30;0.30;;;;;;;;;;7402903;19;20144;-85
2023/03/23 02:45:24;;;;;;;0.30;0.30;;;;;;;;;;7405293;19;20143;-88
2023/03/23 02:47:52;;;;;;;0.30;0.30;;;;;;;;;;7403981;19;20137;-86
2023/03/23 02:50:22;;;;;;;0.30;0.30;;;;;;;;;;7405904;19;20149;-88
2023/03/23 02:52:50;;;;;;;0.40;0.40;;;;;;;;;;7404696;19;20174;-86
2023/03/23 02:55:18;;;;;;;0.63;0.63;;;;;;;;;;7404366;19;20208;-86
2023/03/23 02:57:46;;;;;;;0.43;0.43;;;;;;;;;;7401385;19;20129;-89
2023/03/23 03:00:15;;;;;;;0.50;0.50;;;;;;;;;;7401415;19;20151;-88
2023/03/23 03:02:53;;;;;;;0.30;0.30;;;;;;;;;;7400794;19;20144;-85
2023/03/23 03:05:51;;;;;;;0.30;0.30;;;;;;;;;;7405303;19;20605;-88
2023/03/23 03:08:46;;;;;;;0.40;0.40;;;;;;;;;;7420904;19;20149;-92
2023/03/23 03:11:17;;;;;;;0.83;0.60;;;;;;;;;;7429214;19;20577;-92
2023/03/23 03:13:55;;;;;;;0.60;0.60;;;;;;;;;;7425967;19;20153;-92
2023/03/23 07:11:41;;;;;;;0.20;0.20;;;;;;;;;;7421657;19;20216;-94
2023/03/23 07:14:16;;;;;;;0.30;0.30;;;;;;;;;;7413876;19;20145;-91
2023/03/23 07:16:42;;;;;;;2.00;0.60;;;;;;;;;;7399676;19;20129;-91
2023/03/23 07:19:09;;;;;;;0.30;0.30;;;;;;;;;;7397289;19;20149;-88
2023/03/23 07:21:36;;;;;;;0.70;0.70;;;;;;;;;;7407167;19;20173;-88
2023/03/23 07:24:03;;;;;;;0.60;0.60;;;;;;;;;;7408119;19;20140;-87
2023/03/23 07:26:30;;;;;;;0.30;0.30;;;;;;;;;;7404720;19;20136;-89
2023/03/23 07:28:56;;;;;;;0.37;0.37;;;;;;;;;;7403070;19;20514;-87
2023/03/23 07:31:23;;;;;;;0.50;0.50;;;;;;;;;;7402249;19;20144;-88
2023/03/23 07:33:50;;;;;;;0.30;0.30;;;;;;;;;;7403067;19;20118;-88
2023/03/23 07:36:16;;;;;;;1.10;0.57;;;;;;;;;;7403150;19;20137;-88
2023/03/23 07:38:43;;;;;;;0.57;0.57;;;;;;;;;;7397779;19;20164;-87
2023/03/23 07:41:10;;;;;;;1.03;0.90;;;;;;;;;;7389013;19;20157;-91
2023/03/23 07:43:38;;;;;;;0.63;0.57;;;;;;;;;;7394746;19;20121;-90
2023/03/23 07:46:04;;;;;;;0.40;0.40;;;;;;;;;;7397461;19;20158;-91
2023/03/23 07:48:31;;;;;;;0.40;0.40;;;;;;;;;;7395830;19;20180;-90
2023/03/23 07:50:58;;;;;;;0.67;0.67;;;;;;;;;;7398939;19;20129;-91
2023/03/23 07:53:25;;;;;;;0.53;0.53;;;;;;;;;;7399840;19;20161;-91
2023/03/23 07:55:52;;;;;;;0.70;0.70;;;;;;;;;;7398453;19;20125;-90
2023/03/23 07:58:20;;;;;;;0.40;0.40;;;;;;;;;;7399295;19;20723;-90
2023/03/23 08:00:48;;;;;;;0.43;0.43;;;;;;;;;;7400080;19;20157;-90
2023/03/23 08:03:15;;;;;;;0.67;0.67;;;;;;;;;;7396015;19;20559;-90
2023/03/23 08:05:42;;;;;;;0.70;0.70;;;;;;;;;;7397582;19;20157;-91
2023/03/23 08:08:09;;;;;;;0.30;0.30;;;;;;;;;;7397458;19;20145;-90
2023/03/23 08:10:36;;;;;;;0.40;0.40;;;;;;;;;;7397842;19;20136;-91
2023/03/23 08:13:03;;;;;;;0.60;0.60;;;;;;;;;;7398204;19;20125;-91
2023/03/23 08:15:30;;;;;;;1.80;0.70;;;;;;;;;;7398123;19;20140;-89
2023/03/23 08:17:58;;;;;;;0.77;0.77;;;;;;;;;;7398273;19;20149;-90
2023/03/23 08:20:25;;;;;;;0.40;0.40;;;;;;;;;;7397614;19;20129;-90
2023/03/23 08:22:53;;;;;;;0.57;0.57;;;;;;;;;;7396791;19;20137;-90
2023/03/23 08:25:20;;;;;;;0.40;0.40;;;;;;;;;;7407884;19;20133;-91
2023/03/23 08:27:46;;;;;;;0.30;0.30;;;;;;;;;;7397038;19;20144;-92
2023/03/23 08:33:28;;;;;;;0.53;0.53;;;;;;;;;;7394751;19;20141;-89
2023/03/23 08:35:58;;;;;;;0.63;0.63;;;;;;;;;;7402987;19;20507;-89
2023/03/23 08:39:20;;;;;;;0.70;0.70;;;;;;;;;;7397590;19;20192;-90
2023/03/23 08:41:52;;;;;;;0.30;0.30;;;;;;;;;;7396177;19;20152;-90
2023/03/23 08:44:44;;;;;;;0.55;0.55;;;;;;;;;;7397520;19;20137;-93
2023/03/23 08:47:21;;;;;;;0.40;0.40;;;;;;;;;;7397923;19;20157;-90
2023/03/23 08:50:19;;;;;;;0.60;0.60;;;;;;;;;;7398068;19;20172;-92
2023/03/23 08:52:58;;;;;;;0.30;0.30;;;;;;;;;;7397244;19;20149;-92
2023/03/23 08:56:36;;;;;;;;;;;;;;;;;;;;;
2023/03/23 08:59:37;;;;;;;0.30;0.30;;;;;;;;;;7395910;19;20516;-92
2023/03/23 09:02:23;;;;;;;0.50;0.50;;;;;;;;;;7399051;19;20129;-91
2023/03/23 09:05:06;;;;;;;0.50;0.50;;;;;;;;;;7398749;19;20157;-91
2023/03/23 09:13:29;;;;;;;0.52;0.52;;;;;;;;;;7401006;19;20159;-91
2023/03/23 09:15:59;;;;;;;0.40;0.40;;;;;;;;;;7403954;19;20655;-89
2023/03/23 09:18:33;;;;;;;0.52;0.52;;;;;;;;;;7404683;19;20168;-90
2023/03/23 09:20:59;;;;;;;0.32;0.32;;;;;;;;;;7401830;19;20152;-91
2023/03/23 09:23:41;;;;;;;0.70;0.70;;;;;;;;;;7398351;19;20152;-90
2023/03/23 09:26:55;;;;;;;0.38;0.38;;;;;;;;;;7402051;19;20145;-90
2023/03/23 09:30:34;;;;;;;0.77;0.77;;;;;;;;;;7401344;19;20156;-89
2023/03/23 09:33:34;;;;;;;0.40;0.40;;;;;;;;;;7407649;19;20597;-90
2023/03/23 09:36:16;;;;;;;0.55;0.55;;;;;;;;;;7409097;19;20160;-89
2023/03/23 09:38:45;;;;;;;0.50;0.50;;;;;;;;;;7410433;19;20814;-89
2023/03/23 09:41:53;;;;;;;0.32;0.32;;;;;;;;;;7419924;19;20160;-91
2023/03/23 09:44:45;;;;;;;0.40;0.40;;;;;;;;;;7412882;19;20168;-89
2023/03/23 10:01:00;;;;;;;0.40;0.40;;;;;;;;;;7416370;19;20141;-89
2023/03/23 10:03:44;;;;;;;0.30;0.30;;;;;;;;;;7413790;19;20173;-89
2023/03/23 10:06:13;;;;;;;0.52;0.52;;;;;;;;;;7410176;19;20141;-89
2023/03/23 10:08:44;;;;;;;0.20;0.20;;;;;;;;;;7410825;19;20422;-90
2023/03/23 10:11:56;;;;;;;0.63;0.63;;;;;;;;;;7406046;19;20145;-88
2023/03/23 10:14:24;;;;;;;0.40;0.40;;;;;;;;;;7404758;19;20141;-90
2023/03/23 10:17:12;;;;;;;0.30;0.30;;;;;;;;;;7399493;19;20141;-91
2023/03/23 10:19:59;;;;;;;0.40;0.40;;;;;;;;;;7410589;19;20165;-91
2023/03/23 10:22:32;;;;;;;0.75;0.75;;;;;;;;;;7416870;19;20137;-90
2023/03/23 10:25:09;;;;;;;0.50;0.50;;;;;;;;;;7416026;19;20425;-90
2023/03/23 10:27:49;;;;;;;0.40;0.40;;;;;;;;;;7423180;19;20157;-93
2023/03/23 10:30:25;;;;;;;0.50;0.50;;;;;;;;;;7418473;19;20137;-91
2023/03/23 10:32:56;;;;;;;0.82;0.47;;;;;;;;;;7402851;19;20137;-90
2023/03/23 10:35:30;;;;;;;0.30;0.30;;;;;;;;;;7396988;19;20499;-90
2023/03/23 10:38:04;;;;;;;0.38;0.38;;;;;;;;;;7398324;19;20152;-89
2023/03/23 10:40:34;;;;;;;0.40;0.40;;;;;;;;;;7397700;19;20465;-89
2023/03/23 10:43:01;;;;;;;0.43;0.43;;;;;;;;;;7396595;19;20141;-89
2023/03/23 10:45:32;;;;;;;0.30;0.30;;;;;;;;;;7400255;19;20145;-90
2023/03/23 10:48:30;;;;;;;0.50;0.50;;;;;;;;;;7397203;19;20140;-90
2023/03/23 10:51:00;;;;;;;0.38;0.38;;;;;;;;;;7398437;19;20144;-90
2023/03/23 10:53:33;;;;;;;0.38;0.38;;;;;;;;;;7400476;19;20140;-90
2023/03/23 10:56:00;;;;;;;0.35;0.35;;;;;;;;;;7400034;19;20700;-89
2023/03/23 10:58:33;;;;;;;0.65;0.65;;;;;;;;;;7397650;19;20162;-90
2023/03/23 11:01:02;;;;;;;0.43;0.43;;;;;;;;;;7396481;19;20161;-90
2023/03/23 11:03:43;;;;;;;0.57;0.57;;;;;;;;;;7398021;19;20644;-90
2023/03/23 11:06:37;;;;;;;0.32;0.32;;;;;;;;;;7398874;19;20226;-90
2023/03/23 11:09:17;;;;;;;0.40;0.40;;;;;;;;;;7401862;19;20173;-90
2023/03/23 11:11:55;;;;;;;2.17;0.93;;;;;;;;;;7402460;19;20482;-89
2023/03/23 11:14:38;;;;;;;0.40;0.40;;;;;;;;;;7402634;19;20145;-88
2023/03/23 11:17:21;;;;;;;1.85;0.57;;;;;;;;;;7399452;19;20164;-90
2023/03/23 11:23:11;;;;;;;0.45;0.45;;;;;;;;;;7398600;19;20168;-90
2023/03/23 11:37:10;;;;;;;0.77;0.77;;;;;;;;;;7400364;19;20521;-92
2023/03/23 11:40:29;;;;;;;0.38;0.38;;;;;;;;;;7387931;19;20169;-92
2023/03/23 11:43:51;;;;;;;0.35;0.35;;;;;;;;;;7398354;19;20148;-92
2023/03/23 11:57:24;;;;;;;0.43;0.43;;;;;;;;;;7386253;19;20157;-92
2023/03/23 12:00:11;;;;;;;0.88;0.68;;;;;;;;;;7388066;19;20154;-92
2023/03/23 12:03:02;;;;;;;0.30;0.30;;;;;;;;;;7392472;19;20693;-91
2023/03/23 12:05:57;;;;;;;0.50;0.50;;;;;;;;;;7388516;19;20145;-92
2023/03/23 12:08:30;;;;;;;0.32;0.32;;;;;;;;;;7396099;19;20211;-91
2023/03/23 12:14:13;;;;;;;0.40;0.35;;;;;;;;;;7397262;19;20155;-92
2023/03/23 12:17:02;;;;;;;1.58;0.75;;;;;;;;;;7394698;19;20166;-92
2023/03/23 12:31:19;;;;;;;0.40;0.40;;;;;;;;;;7401917;19;20474;-92
2023/03/23 12:34:17;;;;;;;0.68;0.68;;;;;;;;;;7396838;19;20144;-93
2023/03/23 12:36:57;;;;;;;0.43;0.43;;;;;;;;;;7396493;19;20153;-92
2023/03/23 12:40:15;;;;;;;0.30;0.30;;;;;;;;;;7400334;19;20180;-90
2023/03/23 12:43:07;;;;;;;0.30;0.30;;;;;;;;;;7396555;19;20504;-90
2023/03/23 12:46:24;;;;;;;0.30;0.30;;;;;;;;;;7399660;19;20145;-90
2023/03/23 12:49:00;;;;;;;0.40;0.40;;;;;;;;;;7395861;19;20337;-90
2023/03/23 12:51:55;;;;;;;0.57;0.57;;;;;;;;;;7412806;19;20262;-90
2023/03/23 12:54:53;;;;;;;0.65;0.65;;;;;;;;;;7418690;19;20191;-95
2023/03/23 12:57:35;;;;;;;0.40;0.40;;;;;;;;;;7426606;19;20140;-94
2023/03/23 13:00:34;;;;;;;1.85;0.68;;;;;;;;;;7427767;19;20169;-94
2023/03/23 13:03:44;;;;;;;0.75;0.65;;;;;;;;;;7426561;19;20160;-95
2023/03/23 13:06:53;;;;;;;0.40;0.40;;;;;;;;;;7428141;19;20144;-95
2023/03/23 13:09:47;;;;;;;0.50;0.50;;;;;;;;;;7428871;19;20137;-95
2023/03/23 13:12:40;;;;;;;0.55;0.50;;;;;;;;;;7426765;19;20176;-94
2023/03/23 13:15:44;;;;;;;0.30;0.30;;;;;;;;;;7429381;19;20132;-96
2023/03/23 13:18:42;;;;;;;0.38;0.38;;;;;;;;;;7428523;19;20141;-94
2023/03/23 13:21:45;;;;;;;0.65;0.65;;;;;;;;;;7431257;19;20129;-96
2023/03/23 13:24:31;;;;;;;0.57;0.57;;;;;;;;;;7427699;19;20144;-95
2023/03/23 13:27:02;;;;;;;0.40;0.40;;;;;;;;;;7430312;19;20588;-94
2023/03/23 13:29:36;;;;;;;0.57;0.57;;;;;;;;;;7428867;19;20153;-94
2023/03/23 13:32:35;;;;;;;0.52;0.52;;;;;;;;;;7424787;19;20164;-94
2023/03/23 14:21:04;;;;;;;0.43;0.43;;;;;;;;;;7431787;19;20562;-96
2023/03/23 14:23:37;;;;;;;0.50;0.50;;;;;;;;;;7430013;19;20355;-95
2023/03/23 14:26:10;;;;;;;0.30;0.30;;;;;;;;;;7430239;19;20172;-96
2023/03/23 14:28:43;;;;;;;0.60;0.60;;;;;;;;;;7427242;19;20145;-95
2023/03/23 14:31:21;;;;;;;0.40;0.40;;;;;;;;;;7428030;19;20176;-95
2023/03/23 14:33:49;;;;;;;0.80;0.80;;;;;;;;;;7422572;19;20160;-95
2023/03/23 14:36:31;;;;;;;0.38;0.38;;;;;;;;;;7428336;19;20173;-95
2023/03/23 14:39:11;;;;;;;0.68;0.68;;;;;;;;;;7425885;19;20141;-96
2023/03/23 14:41:39;;;;;;;0.80;0.80;;;;;;;;;;7424817;19;20161;-96
2023/03/23 14:44:08;;;;;;;0.52;0.52;;;;;;;;;;7425081;19;20168;-95
2023/03/23 14:46:36;;;;;;;0.40;0.40;;;;;;;;;;7425238;19;20137;-94
2023/03/23 14:49:04;;;;;;;1.15;0.73;;;;;;;;;;7425696;19;20527;-95
2023/03/23 14:51:31;;;;;;;0.52;0.52;;;;;;;;;;7428648;19;20140;-95
2023/03/23 14:54:00;;;;;;;0.30;0.30;;;;;;;;;;7426980;19;20258;-96
2023/03/23 14:56:34;;;;;;;1.83;0.43;;;;;;;;;;7429104;19;20168;-95
2023/03/23 14:59:05;;;;;;;0.30;0.30;;;;;;;;;;7426749;19;20136;-96
2023/03/23 15:01:34;;;;;;;0.40;0.40;;;;;;;;;;7428609;19;20154;-95
2023/03/23 15:04:11;;;;;;;0.40;0.40;;;;;;;;;;7426284;19;20196;-96
2023/03/23 15:06:46;;;;;;;0.55;0.55;;;;;;;;;;7427899;19;20137;-96
2023/03/23 15:15:37;;;;;;;0.50;0.50;;;;;;;;;;7426639;19;20145;-96
2023/03/23 15:18:04;;;;;;;0.30;0.30;;;;;;;;;;7420037;19;20143;-95
2023/03/23 15:31:23;;;;;;;0.65;0.65;;;;;;;;;;7427860;19;20171;-94
2023/03/23 15:33:58;;;;;;;0.57;0.57;;;;;;;;;;7427364;19;20151;-94
2023/03/23 15:36:25;;;;;;;0.40;0.40;;;;;;;;;;7425278;19;20144;-96
2023/03/23 15:38:54;;;;;;;1.17;0.52;;;;;;;;;;7423518;19;20132;-93
2023/03/23 15:41:27;;;;;;;0.40;0.40;;;;;;;;;;7428120;19;20153;-95
2023/03/23 17:01:32;;;;;;;0.38;0.38;;;;;;;;;;7397868;19;20185;-96
2023/03/23 17:06:30;;;;;;;0.47;0.47;;;;;;;;;;7412334;19;20483;-96
2023/03/23 17:09:12;;;;;;;0.55;0.55;;;;;;;;;;7427729;19;20133;-96
2023/03/23 17:12:36;;;;;;;0.45;0.45;;;;;;;;;;7430480;19;20461;-96
2023/03/23 17:22:01;;;;;;;;;;;;;;;;;;;;;
2023/03/23 17:24:29;;;;;;;0.30;0.30;;;;;;;;;;7396444;19;20160;-88
2023/03/23 17:38:43;;;;;;;0.75;0.75;;;;;;;;;;7379391;19;20184;-95
2023/03/23 17:45:17;;;;;;;0.50;0.50;;;;;;;;;;7364583;19;20200;-90
2023/03/23 17:47:48;;;;;;;0.40;0.40;;;;;;;;;;7397502;19;20168;-88
2023/03/23 17:50:23;;;;;;;0.45;0.45;;;;;;;;;;7399722;19;20157;-90
2023/03/23 17:53:19;;;;;;;0.68;0.68;;;;;;;;;;7397492;19;20144;-92
2023/03/23 17:56:57;;;;;;;;;;;;;;;;;;;;;
2023/03/23 17:59:58;;;;;;;0.50;0.50;;;;;;;;;;7402590;19;20183;-90
2023/03/23 18:02:24;;;;;;;0.73;0.73;;;;;;;;;;7392359;19;20155;-93
2023/03/23 18:04:55;;;;;;;0.40;0.40;;;;;;;;;;7393922;19;20148;-90
2023/03/23 18:07:47;;;;;;;0.30;0.30;;;;;;;;;;7397606;19;20144;-91
2023/03/23 18:10:24;;;;;;;0.40;0.40;;;;;;;;;;7393503;19;20140;-91
2023/03/23 18:12:52;;;;;;;0.55;0.55;;;;;;;;;;7396130;19;20143;-92
2023/03/23 18:15:25;;;;;;;0.30;0.30;;;;;;;;;;7397257;19;20217;-92
2023/03/23 18:18:16;;;;;;;0.40;0.40;;;;;;;;;;7404785;19;20147;-92
2023/03/23 18:21:29;;;;;;;0.33;0.33;;;;;;;;;;7391872;19;20162;-91
2023/03/23 18:24:40;;;;;;;1.55;0.60;;;;;;;;;;7395721;19;20155;-91
2023/03/23 18:27:39;;;;;;;0.30;0.30;;;;;;;;;;7397329;19;20580;-93
2023/03/23 18:34:17;;;;;;;0.60;0.60;;;;;;;;;;7404491;19;20129;-93
2023/03/23 18:36:47;;;;;;;0.43;0.43;;;;;;;;;;7408015;19;20593;-93
2023/03/23 18:39:15;;;;;;;0.50;0.50;;;;;;;;;;7412286;19;20165;-93
2023/03/23 18:42:01;;;;;;;0.50;0.50;;;;;;;;;;7424809;19;20140;-94
2023/03/23 19:17:45;;;;;;;0.40;0.40;;;;;;;;;;7423861;19;20149;-90
2023/03/23 19:20:35;;;;;;;0.70;0.70;;;;;;;;;;7426851;19;20137;-91
2023/03/23 19:23:22;;;;;;;0.70;0.70;;;;;;;;;;7422873;19;20188;-94
2023/03/23 19:25:52;;;;;;;0.50;0.50;;;;;;;;;;7391471;19;20144;-93
2023/03/23 19:28:28;;;;;;;0.40;0.40;;;;;;;;;;7394979;19;20171;-94
2023/03/23 19:31:07;;;;;;;0.30;0.30;;;;;;;;;;7400125;19;20169;-94
2023/03/23 19:33:51;;;;;;;0.40;0.40;;;;;;;;;;7396631;19;20145;-93
2023/03/23 19:36:26;;;;;;;0.77;0.63;;;;;;;;;;7392387;19;20132;-93
2023/03/23 19:38:57;;;;;;;0.60;0.60;;;;;;;;;;7391850;19;20516;-92
2023/03/23 19:41:28;;;;;;;0.70;0.70;;;;;;;;;;7394102;19;20208;-90
2023/03/23 19:43:58;;;;;;;0.50;0.50;;;;;;;;;;7391172;19;20143;-92
2023/03/23 19:50:15;;;;;;;0.60;0.60;;;;;;;;;;7392515;19;20223;-92
2023/03/23 19:56:27;;;;;;;0.50;0.50;;;;;;;;;;7396825;19;20131;-91
2023/03/23 19:59:55;;;;;;;0.70;0.70;;;;;;;;;;7419439;19;20171;-93
2023/03/23 20:02:45;;;;;;;0.53;0.53;;;;;;;;;;7422543;19;20153;-95
2023/03/23 20:05:12;;;;;;;1.00;1.00;;;;;;;;;;7419069;19;20129;-95
2023/03/23 20:07:39;;;;;;;0.60;0.60;;;;;;;;;;7418562;19;20129;-94
2023/03/23 20:10:15;;;;;;;0.50;0.50;;;;;;;;;;7402665;19;20140;-93
2023/03/23 20:12:45;;;;;;;0.57;0.57;;;;;;;;;;7390887;19;20145;-94
2023/03/23 20:15:20;;;;;;;0.50;0.40;;;;;;;;;;7393750;19;20145;-92
2023/03/23 20:17:47;;;;;;;1.10;1.07;;;;;;;;;;7390292;19;20667;-92
2023/03/23 20:20:15;;;;;;;0.57;0.57;;;;;;;;;;7393404;19;20152;-93
2023/03/23 20:22:42;;;;;;;0.60;0.60;;;;;;;;;;7391959;19;20166;-92
2023/03/23 20:25:09;;;;;;;0.67;0.67;;;;;;;;;;7386958;19;20137;-92
2023/03/23 20:27:38;;;;;;;0.80;0.80;;;;;;;;;;7389902;19;20210;-92
2023/03/23 20:30:06;;;;;;;0.60;0.60;;;;;;;;;;7395351;19;20165;-92
2023/03/23 20:32:33;;;;;;;0.83;0.70;;;;;;;;;;7394332;19;20137;-94
2023/03/23 20:35:05;;;;;;;0.67;0.67;;;;;;;;;;7396053;19;20137;-93
2023/03/23 20:37:41;;;;;;;0.30;0.30;;;;;;;;;;7396874;19;20173;-92
2023/03/23 20:40:15;;;;;;;1.17;1.17;;;;;;;;;;7396519;19;20169;-91
2023/03/23 20:43:02;;;;;;;0.80;0.80;;;;;;;;;;7393468;19;20184;-92
2023/03/23 20:45:43;;;;;;;0.40;0.40;;;;;;;;;;7396812;19;20178;-92
2023/03/23 20:48:13;;;;;;;3.77;0.93;;;;;;;;;;7396381;19;20165;-91
2023/03/23 20:50:40;;;;;;;0.50;0.50;;;;;;;;;;7397351;19;20141;-93
2023/03/23 20:53:07;;;;;;;0.50;0.50;;;;;;;;;;7398129;19;20137;-91
2023/03/23 20:55:34;;;;;;;0.47;0.47;;;;;;;;;;7401442;19;20140;-93
2023/03/23 20:58:01;;;;;;;0.90;0.83;;;;;;;;;;7397472;19;20146;-91
2023/03/23 21:00:28;;;;;;;0.90;0.90;;;;;;;;;;7397943;19;20165;-93
2023/03/23 21:02:54;;;;;;;0.87;0.87;;;;;;;;;;7394964;19;20144;-94
2023/03/23 21:05:23;;;;;;;1.13;0.97;;;;;;;;;;7401075;19;20181;-93
2023/03/23 21:07:53;;;;;;;0.47;0.47;;;;;;;;;;7397879;19;20133;-92
2023/03/23 21:10:21;;;;;;;0.40;0.40;;;;;;;;;;7400673;19;20200;-90
2023/03/23 21:12:52;;;;;;;1.07;0.87;;;;;;;;;;7395428;19;20149;-93
2023/03/23 21:15:21;;;;;;;1.03;1.03;;;;;;;;;;7397014;19;20137;-92
2023/03/23 21:17:48;;;;;;;0.80;0.80;;;;;;;;;;7394727;19;20133;-92
2023/03/23 21:20:15;;;;;;;0.50;0.50;;;;;;;;;;7397868;19;20146;-92
2023/03/23 21:22:41;;;;;;;0.47;0.47;;;;;;;;;;7404056;19;20137;-93
2023/03/23 21:25:09;;;;;;;0.50;0.50;;;;;;;;;;7400199;19;20543;-91
2023/03/23 21:27:36;;;;;;;0.40;0.40;;;;;;;;;;7398323;19;20141;-91
2023/03/23 21:30:04;;;;;;;1.00;0.93;;;;;;;;;;7399042;19;20153;-91
2023/03/23 21:32:33;;;;;;;0.33;0.33;;;;;;;;;;7400768;19;20913;-90
2023/03/23 21:35:08;;;;;;;0.60;0.60;;;;;;;;;;7396816;19;20149;-90
2023/03/23 21:37:40;;;;;;;1.03;0.77;;;;;;;;;;7393174;19;20141;-93
2023/03/23 21:40:12;;;;;;;1.30;1.20;;;;;;;;;;7398566;19;20184;-93
2023/03/23 21:42:48;;;;;;;0.40;0.40;;;;;;;;;;7418205;19;20125;-93
2023/03/23 21:45:20;;;;;;;0.73;0.73;;;;;;;;;;7425501;19;20153;-93
2023/03/23 21:47:55;;;;;;;1.03;0.90;;;;;;;;;;7429551;19;20146;-95
2023/03/23 21:50:23;;;;;;;0.30;0.30;;;;;;;;;;7432145;19;20126;-95
2023/03/23 21:52:52;;;;;;;0.93;0.70;;;;;;;;;;7429709;19;20140;-94
2023/03/23 21:55:22;;;;;;;0.53;0.53;;;;;;;;;;7425909;19;20201;-91
2023/03/23 21:57:51;;;;;;;0.43;0.43;;;;;;;;;;7396223;19;20169;-91
2023/03/23 22:00:18;;;;;;;0.60;0.60;;;;;;;;;;7391960;19;20144;-93
2023/03/23 22:02:45;;;;;;;1.33;0.97;;;;;;;;;;7397747;19;20152;-92
2023/03/23 22:05:20;;;;;;;0.40;0.40;;;;;;;;;;7398411;19;20577;-92
2023/03/23 22:14:34;;;;;;;1.90;1.33;;;;;;;;;;7393329;19;20233;-93
2023/03/23 22:17:01;;;;;;;1.00;0.93;;;;;;;;;;7395321;19;20141;-92
2023/03/23 22:19:32;;;;;;;0.70;0.70;;;;;;;;;;7393747;19;20156;-92
2023/03/23 22:22:46;;;;;;;0.87;0.87;;;;;;;;;;7393814;19;20144;-94
2023/03/23 22:28:56;;;;;;;0.50;0.50;;;;;;;;;;7396084;19;20152;-93
2023/03/23 22:31:32;;;;;;;0.83;0.60;;;;;;;;;;7395941;19;20170;-93
2023/03/23 22:34:03;;;;;;;0.70;0.70;;;;;;;;;;7397261;19;20691;-92
2023/03/23 22:36:32;;;;;;;0.70;0.70;;;;;;;;;;7393377;19;20141;-92
2023/03/23 22:39:19;;;;;;;0.57;0.57;;;;;;;;;;7390730;19;20585;-87
2023/03/23 22:41:47;;;;;;;1.10;0.80;;;;;;;;;;7393157;19;20704;-90
2023/03/23 22:44:17;;;;;;;0.40;0.40;;;;;;;;;;7392999;19;20133;-89
2023/03/23 22:46:45;;;;;;;0.50;0.50;;;;;;;;;;7395360;19;20144;-89
2023/03/23 22:49:12;;;;;;;0.73;0.70;;;;;;;;;;7398858;19;20621;-90
2023/03/23 22:51:39;;;;;;;0.50;0.50;;;;;;;;;;7397324;19;20602;-89
2023/03/23 22:54:06;;;;;;;0.70;0.70;;;;;;;;;;7399097;19;20178;-91
2023/03/23 22:56:35;;;;;;;0.87;0.87;;;;;;;;;;7398013;19;20129;-90
2023/03/23 22:59:04;;;;;;;1.13;1.13;;;;;;;;;;7395584;19;20155;-91
2023/03/23 23:01:31;;;;;;;0.70;0.70;;;;;;;;;;7393976;19;20157;-89
2023/03/23 23:03:58;;;;;;;0.97;0.70;;;;;;;;;;7393460;19;20200;-89
2023/03/23 23:06:24;;;;;;;1.50;1.23;;;;;;;;;;7390549;19;20141;-89
2023/03/23 23:08:51;;;;;;;0.70;0.70;;;;;;;;;;7394307;19;20152;-90
2023/03/23 23:11:20;;;;;;;0.60;0.60;;;;;;;;;;7392277;19;20162;-88
2023/03/23 23:13:47;;;;;;;0.87;0.87;;;;;;;;;;7410321;19;20203;-93
2023/03/23 23:16:17;;;;;;;1.47;1.10;;;;;;;;;;7401024;19;20168;-93
2023/03/23 23:18:53;;;;;;;1.00;1.00;;;;;;;;;;7391928;19;20502;-93
2023/03/23 23:21:24;;;;;;;0.50;0.50;;;;;;;;;;7394528;19;20643;-92
2023/03/23 23:23:51;;;;;;;0.70;0.70;;;;;;;;;;7391308;19;20136;-92
2023/03/23 23:26:18;;;;;;;1.17;0.93;;;;;;;;;;7390357;19;20148;-91
2023/03/23 23:28:47;;;;;;;0.60;0.60;;;;;;;;;;7387838;19;20184;-89
2023/03/23 23:31:21;;;;;;;0.70;0.70;;;;;;;;;;7392373;19;20146;-89
2023/03/23 23:33:49;;;;;;;1.00;0.90;;;;;;;;;;7393036;19;20162;-89
2023/03/23 23:39:07;;;;;;;1.17;0.57;;;;;;;;;;7394876;19;20169;-90
2023/03/23 23:41:34;;;;;;;1.07;1.07;;;;;;;;;;7394495;19;20515;-88
2023/03/23 23:44:01;;;;;;;0.60;0.60;;;;;;;;;;7390845;19;20601;-87
2023/03/23 23:46:31;;;;;;;0.60;0.60;;;;;;;;;;7396394;19;20137;-90
2023/03/23 23:48:59;;;;;;;0.60;0.60;;;;;;;;;;7395354;19;20168;-88
2023/03/23 23:51:26;;;;;;;1.07;0.93;;;;;;;;;;7417650;19;20160;-90
2023/03/23 23:53:57;;;;;;;0.90;0.90;;;;;;;;;;7425283;19;20165;-91
2023/03/23 23:56:24;;;;;;;0.53;0.53;;;;;;;;;;7426722;19;20137;-91
2023/03/23 23:58:51;;;;;;;0.47;0.47;;;;;;;;;;7426770;19;20149;-91
